Time;durP1;ratioP1;P1;durP2;ratioP2;P2;SDS_P1;SDS_P2;PMS_P1;PMS_P2;Temp;Humidity;BMP_temperature;BMP_pressure;BME280_temperature;BME280_humidity;BME280_pressure;Samples;Min_cycle;Max_cycle;Signal;HPM_P1;HPM_P2
2024/01/04 00:00:52;;;;;;;0.50;0.50;;;3.80;99.90;;;;;;5051529;28;20198;-79
2024/01/04 00:03:19;;;;;;;0.40;0.40;;;3.80;99.90;;;;;;5068554;28;20646;-79
2024/01/04 00:05:45;;;;;;;0.40;0.40;;;3.80;99.90;;;;;;5068598;28;20259;-79
2024/01/04 00:08:11;;;;;;;0.50;0.50;;;3.80;99.90;;;;;;5069840;28;20466;-79
2024/01/04 00:10:36;;;;;;;0.40;0.40;;;3.80;99.90;;;;;;5049699;28;20495;-79
2024/01/04 00:13:02;;;;;;;0.40;0.40;;;3.70;99.90;;;;;;5070198;28;20589;-79
2024/01/04 00:15:27;;;;;;;0.50;0.50;;;3.70;99.90;;;;;;5069990;28;20201;-79
2024/01/04 00:17:53;;;;;;;0.50;0.50;;;3.70;99.90;;;;;;5069351;28;20252;-79
2024/01/04 00:20:18;;;;;;;0.50;0.50;;;3.70;99.90;;;;;;5051687;28;20628;-79
2024/01/04 00:22:44;;;;;;;0.40;0.40;;;3.70;99.90;;;;;;5070087;28;20225;-79
2024/01/04 00:25:09;;;;;;;0.50;0.50;;;3.60;99.90;;;;;;5070105;28;20618;-79
2024/01/04 00:27:35;;;;;;;0.50;0.50;;;3.60;99.90;;;;;;5063633;28;20181;-78
2024/01/04 00:30:01;;;;;;;0.40;0.40;;;3.60;99.90;;;;;;5062728;28;20739;-78
2024/01/04 00:32:26;;;;;;;0.40;0.40;;;3.70;99.90;;;;;;5069019;28;20193;-79
2024/01/04 00:34:52;;;;;;;0.50;0.50;;;3.60;99.90;;;;;;5051507;28;20546;-79
2024/01/04 00:37:17;;;;;;;0.50;0.50;;;3.60;99.90;;;;;;5051897;28;20193;-79
2024/01/04 00:39:43;;;;;;;0.30;0.30;;;3.60;99.90;;;;;;5067859;28;20235;-79
2024/01/04 00:42:08;;;;;;;0.40;0.40;;;3.50;99.90;;;;;;5066448;28;20952;-79
2024/01/04 00:44:34;;;;;;;0.40;0.40;;;3.50;99.90;;;;;;5066961;28;20185;-79
2024/01/04 00:46:59;;;;;;;0.50;0.50;;;3.50;99.90;;;;;;5050844;28;20178;-79
2024/01/04 00:49:25;;;;;;;0.50;0.50;;;3.40;99.90;;;;;;5068886;28;20298;-79
2024/01/04 00:51:50;;;;;;;0.40;0.40;;;3.50;99.90;;;;;;5069174;28;20168;-79
2024/01/04 00:54:16;;;;;;;0.50;0.50;;;3.40;99.90;;;;;;5069465;28;20559;-79
2024/01/04 00:56:41;;;;;;;0.50;0.50;;;3.40;99.90;;;;;;5051513;28;20172;-79
2024/01/04 00:59:07;;;;;;;0.40;0.40;;;3.40;99.90;;;;;;5051989;28;20632;-79
2024/01/04 01:01:33;;;;;;;0.50;0.50;;;3.40;99.90;;;;;;5066942;28;20184;-79
2024/01/04 01:03:59;;;;;;;0.40;0.40;;;3.40;99.90;;;;;;5065837;28;20172;-79
2024/01/04 01:06:24;;;;;;;0.50;0.50;;;3.40;99.90;;;;;;5051291;28;20940;-79
2024/01/04 01:08:50;;;;;;;0.33;0.33;;;3.30;99.90;;;;;;5069272;28;20475;-79
2024/01/04 01:11:16;;;;;;;0.40;0.40;;;3.30;99.90;;;;;;5068798;28;20185;-79
2024/01/04 01:13:42;;;;;;;0.40;0.40;;;3.20;99.90;;;;;;5068742;28;20182;-79
2024/01/04 01:16:08;;;;;;;0.50;0.50;;;3.30;99.90;;;;;;5049523;28;20192;-79
2024/01/04 01:18:34;;;;;;;0.50;0.50;;;3.30;99.90;;;;;;5069376;28;20516;-79
2024/01/04 01:21:00;;;;;;;0.40;0.40;;;3.20;99.90;;;;;;5069735;28;20531;-79
2024/01/04 01:23:25;;;;;;;0.40;0.40;;;3.20;99.90;;;;;;5069288;28;20507;-79
2024/01/04 01:25:51;;;;;;;0.40;0.40;;;3.10;99.90;;;;;;5069379;28;20311;-79
2024/01/04 01:28:16;;;;;;;0.50;0.50;;;3.10;99.90;;;;;;5069703;28;20186;-78
2024/01/04 01:30:42;;;;;;;0.47;0.47;;;3.10;99.90;;;;;;5067673;28;20221;-79
2024/01/04 01:33:07;;;;;;;0.47;0.47;;;3.00;99.90;;;;;;5064534;28;20704;-79
2024/01/04 01:35:33;;;;;;;0.50;0.50;;;3.10;99.90;;;;;;5069609;28;20164;-79
2024/01/04 01:37:59;;;;;;;0.30;0.30;;;3.10;99.90;;;;;;5068023;28;20190;-79
2024/01/04 01:40:24;;;;;;;0.40;0.40;;;3.10;99.90;;;;;;5066914;28;20181;-79
2024/01/04 01:42:50;;;;;;;0.33;0.33;;;3.20;99.90;;;;;;5051204;28;20178;-79
2024/01/04 01:45:16;;;;;;;0.40;0.40;;;3.00;99.90;;;;;;5068722;28;20170;-79
2024/01/04 01:47:45;;;;;;;0.40;0.40;;;3.00;99.90;;;;;;5052989;28;20167;-79
2024/01/04 01:50:10;;;;;;;0.40;0.40;;;3.00;99.90;;;;;;5069746;28;20990;-79
2024/01/04 01:52:36;;;;;;;0.40;0.40;;;3.00;99.90;;;;;;5072406;28;20459;-79
2024/01/04 01:55:03;;;;;;;0.40;0.40;;;3.00;99.90;;;;;;5070368;28;20214;-79
2024/01/04 01:57:32;;;;;;;0.40;0.40;;;2.80;99.90;;;;;;5054140;28;20435;-79
2024/01/04 01:59:59;;;;;;;0.40;0.40;;;2.90;99.90;;;;;;5054689;28;20428;-79
2024/01/04 02:02:26;;;;;;;0.40;0.40;;;2.90;99.90;;;;;;5071615;28;20410;-79
2024/01/04 02:04:51;;;;;;;0.33;0.33;;;2.80;99.90;;;;;;5070123;28;20489;-79
2024/01/04 02:07:17;;;;;;;0.40;0.40;;;2.80;99.90;;;;;;5071882;28;20467;-79
2024/01/04 02:09:43;;;;;;;0.30;0.30;;;2.80;99.90;;;;;;5054059;28;20785;-79
2024/01/04 02:12:13;;;;;;;0.40;0.40;;;2.80;99.90;;;;;;5072182;28;20210;-79
2024/01/04 02:14:39;;;;;;;0.37;0.37;;;2.80;99.90;;;;;;5072644;28;20431;-79
2024/01/04 02:17:04;;;;;;;0.40;0.40;;;2.80;99.90;;;;;;5070705;28;20428;-79
2024/01/04 02:19:30;;;;;;;0.40;0.40;;;2.70;99.90;;;;;;5072642;28;20607;-79
2024/01/04 02:21:56;;;;;;;0.50;0.50;;;2.80;99.90;;;;;;5068628;28;20185;-79
2024/01/04 02:24:21;;;;;;;0.40;0.40;;;2.80;99.90;;;;;;5072618;28;20511;-79
2024/01/04 02:26:47;;;;;;;0.40;0.40;;;2.80;99.90;;;;;;5070781;28;20650;-79
2024/01/04 02:29:12;;;;;;;0.40;0.40;;;2.70;99.90;;;;;;5071756;28;20214;-79
2024/01/04 02:31:38;;;;;;;0.50;0.50;;;2.70;99.90;;;;;;5072322;28;20267;-79
2024/01/04 02:34:03;;;;;;;0.40;0.40;;;2.70;99.90;;;;;;5053765;28;20654;-79
2024/01/04 02:36:29;;;;;;;0.50;0.50;;;2.70;99.90;;;;;;5051914;28;20233;-79
2024/01/04 02:38:54;;;;;;;0.43;0.43;;;2.70;99.90;;;;;;5069036;28;20212;-79
2024/01/04 02:41:20;;;;;;;0.60;0.60;;;2.50;99.90;;;;;;5053974;28;20182;-79
2024/01/04 02:43:45;;;;;;;0.50;0.50;;;2.50;99.90;;;;;;5069841;28;20248;-79
2024/01/04 02:46:11;;;;;;;0.50;0.50;;;2.60;99.90;;;;;;5070557;28;20185;-79
2024/01/04 02:48:36;;;;;;;0.43;0.43;;;2.50;99.90;;;;;;5070895;28;20198;-79
2024/01/04 02:51:02;;;;;;;;;;;2.50;99.90;;;;;;5071478;28;20548;-79
2024/01/04 02:53:27;;;;;;;;;;;2.50;99.90;;;;;;5071960;28;19966;-79
2024/01/04 02:55:54;;;;;;;;;;;2.50;99.90;;;;;;5069635;28;19908;-79
2024/01/04 02:58:20;;;;;;;;;;;2.50;99.90;;;;;;5053634;28;20007;-79
2024/01/04 03:00:45;;;;;;;;;;;2.50;99.90;;;;;;5070066;28;20008;-79
2024/01/04 03:03:11;;;;;;;;;;;2.50;99.90;;;;;;5053805;28;19915;-79
2024/01/04 03:05:36;;;;;;;;;;;2.40;99.90;;;;;;5071193;28;19908;-79
2024/01/04 03:08:01;;;;;;;;;;;2.50;99.90;;;;;;5053705;28;19920;-79
2024/01/04 03:10:27;;;;;;;;;;;2.40;99.90;;;;;;5053379;28;20283;-79
2024/01/04 03:12:53;;;;;;;;;;;2.40;99.90;;;;;;5069984;28;20307;-79
2024/01/04 03:15:18;;;;;;;;;;;2.30;99.90;;;;;;5071380;28;19931;-79
2024/01/04 03:17:43;;;;;;;;;;;2.40;99.90;;;;;;5071384;28;20299;-79
2024/01/04 03:20:09;;;;;;;;;;;2.30;99.90;;;;;;5071079;28;20373;-79
2024/01/04 03:22:34;;;;;;;;;;;2.30;99.90;;;;;;5071327;28;20423;-79
2024/01/04 03:25:00;;;;;;;;;;;2.40;99.90;;;;;;5071307;28;19915;-79
2024/01/04 03:27:25;;;;;;;;;;;2.20;99.90;;;;;;5051333;28;20404;-79
2024/01/04 03:29:52;;;;;;;;;;;2.20;99.90;;;;;;5053038;28;19932;-79
2024/01/04 03:32:18;;;;;;;;;;;2.20;99.90;;;;;;5069767;28;19995;-79
2024/01/04 03:34:43;;;;;;;;;;;2.30;99.90;;;;;;5070665;28;19916;-79
2024/01/04 03:37:08;;;;;;;;;;;2.30;99.90;;;;;;5070442;28;19917;-79
2024/01/04 03:39:34;;;;;;;;;;;2.30;99.90;;;;;;5067841;28;19916;-79
2024/01/04 03:41:59;;;;;;;;;;;2.30;99.90;;;;;;5068862;28;19999;-79
2024/01/04 03:44:25;;;;;;;;;;;2.30;99.90;;;;;;5069460;28;19916;-79
2024/01/04 03:46:50;;;;;;;;;;;2.40;99.90;;;;;;5070535;28;19915;-79
2024/01/04 03:49:16;;;;;;;;;;;2.60;99.90;;;;;;5048857;28;19920;-79
2024/01/04 03:51:41;;;;;;;;;;;2.70;99.90;;;;;;5051895;28;19999;-79
2024/01/04 03:54:07;;;;;;;;;;;2.80;99.90;;;;;;5070742;28;19970;-79
2024/01/04 03:56:32;;;;;;;;;;;2.80;99.90;;;;;;5070356;28;19913;-79
2024/01/04 03:58:57;;;;;;;;;;;2.90;99.90;;;;;;5070661;28;19928;-80
2024/01/04 04:01:23;;;;;;;;;;;2.90;99.90;;;;;;5069565;28;19962;-79
2024/01/04 04:03:48;;;;;;;;;;;3.00;99.90;;;;;;5070202;28;19941;-79
2024/01/04 04:06:18;;;;;;;;;;;3.00;99.90;;;;;;5050008;28;19917;-79
2024/01/04 04:08:44;;;;;;;;;;;3.00;99.90;;;;;;5069320;28;19920;-79
2024/01/04 04:11:16;;;;;;;;;;;3.00;99.90;;;;;;5069146;28;19913;-79
2024/01/04 04:13:42;;;;;;;;;;;2.90;99.90;;;;;;5070057;28;20365;-79
2024/01/04 04:16:07;;;;;;;;;;;3.00;99.90;;;;;;5069629;28;19912;-79
2024/01/04 04:18:33;;;;;;;;;;;3.00;99.90;;;;;;5070158;28;20367;-79
2024/01/04 04:20:58;;;;;;;;;;;2.90;99.90;;;;;;5068691;28;20327;-79
2024/01/04 04:23:23;;;;;;;;;;;2.80;99.90;;;;;;5068600;28;19918;-79
2024/01/04 04:25:49;;;;;;;;;;;2.80;99.90;;;;;;5069323;28;20001;-79
2024/01/04 04:28:14;;;;;;;;;;;2.70;99.90;;;;;;5070567;28;19908;-79
2024/01/04 04:30:40;;;;;;;;;;;2.60;99.90;;;;;;5069647;28;20281;-79
2024/01/04 04:33:05;;;;;;;;;;;2.60;99.90;;;;;;5051619;28;19912;-79
2024/01/04 04:35:30;;;;;;;;;;;2.50;99.90;;;;;;5068639;28;19947;-79
2024/01/04 04:37:56;;;;;;;;;;;2.50;99.90;;;;;;5067353;28;19980;-79
2024/01/04 04:40:21;;;;;;;;;;;2.50;99.90;;;;;;5068498;28;19990;-79
2024/01/04 04:42:47;;;;;;;;;;;2.40;99.90;;;;;;5069499;28;19913;-79
2024/01/04 04:45:12;;;;;;;;;;;2.40;99.90;;;;;;5068458;28;19912;-79
2024/01/04 04:47:38;;;;;;;;;;;2.20;99.90;;;;;;5051832;28;19912;-79
2024/01/04 04:50:03;;;;;;;;;;;2.20;99.90;;;;;;5069356;28;19916;-79
2024/01/04 04:52:29;;;;;;;;;;;2.20;99.90;;;;;;5067348;28;20016;-79
2024/01/04 04:54:55;;;;;;;;;;;2.20;99.90;;;;;;5069074;28;19912;-79
2024/01/04 04:57:21;;;;;;;;;;;2.10;99.90;;;;;;5067962;28;19916;-79
2024/01/04 04:59:47;;;;;;;;;;;2.20;99.90;;;;;;5068809;28;19916;-79
2024/01/04 05:02:12;;;;;;;;;;;2.10;99.90;;;;;;5066279;28;19920;-79
2024/01/04 05:04:37;;;;;;;;;;;2.00;99.90;;;;;;5068193;28;19916;-79
2024/01/04 05:07:03;;;;;;;;;;;2.00;99.90;;;;;;5051197;28;19916;-79
2024/01/04 05:09:28;;;;;;;;;;;1.90;99.90;;;;;;5068696;28;20648;-79
2024/01/04 05:11:54;;;;;;;;;;;1.90;99.90;;;;;;5069559;28;19919;-80
2024/01/04 05:14:19;;;;;;;;;;;1.80;99.90;;;;;;5069046;28;19913;-79
2024/01/04 05:16:45;;;;;;;;;;;1.80;99.90;;;;;;5068974;28;20007;-79
2024/01/04 05:19:10;;;;;;;;;;;1.70;99.90;;;;;;5051724;28;20388;-79
2024/01/04 05:21:36;;;;;;;;;;;1.70;99.90;;;;;;5055728;28;19915;-80
2024/01/04 05:24:01;;;;;;;;;;;1.60;99.90;;;;;;5064626;28;19908;-79
2024/01/04 05:26:27;;;;;;;;;;;1.60;99.90;;;;;;5073632;28;19912;-79
2024/01/04 05:28:52;;;;;;;;;;;1.60;99.90;;;;;;5072650;28;19991;-80
2024/01/04 05:31:19;;;;;;;;;;;1.50;99.90;;;;;;5054051;28;19908;-79
2024/01/04 05:33:45;;;;;;;;;;;1.60;99.90;;;;;;5063482;28;19913;-79
2024/01/04 05:36:11;;;;;;;;;;;1.60;99.90;;;;;;5070593;28;19932;-79
2024/01/04 05:38:36;;;;;;;;;;;1.50;99.90;;;;;;5071697;28;19982;-79
2024/01/04 05:41:02;;;;;;;;;;;1.40;99.90;;;;;;5055188;28;20023;-79
2024/01/04 05:43:29;;;;;;;;;;;1.40;99.90;;;;;;5072412;28;19919;-79
2024/01/04 05:45:54;;;;;;;;;;;1.40;99.90;;;;;;5071273;28;20315;-79
2024/01/04 05:48:20;;;;;;;;;;;1.40;99.90;;;;;;5073286;28;19908;-79
2024/01/04 05:50:45;;;;;;;;;;;1.40;99.90;;;;;;5069655;28;19931;-79
2024/01/04 05:53:11;;;;;;;;;;;1.40;99.90;;;;;;5072783;28;19950;-79
2024/01/04 05:55:36;;;;;;;;;;;1.40;99.90;;;;;;5072023;28;19922;-79
2024/01/04 05:58:02;;;;;;;;;;;1.40;99.90;;;;;;5048177;28;20257;-79
2024/01/04 06:00:27;;;;;;;;;;;1.30;99.90;;;;;;5071229;28;19974;-79
2024/01/04 06:02:53;;;;;;;;;;;1.20;99.90;;;;;;5066156;28;20584;-79
2024/01/04 06:05:18;;;;;;;;;;;1.10;99.90;;;;;;5070870;28;19927;-79
2024/01/04 06:07:47;;;;;;;;;;;1.10;99.90;;;;;;5068881;28;19952;-79
2024/01/04 06:10:12;;;;;;;;;;;1.00;99.90;;;;;;5049204;28;19954;-79
2024/01/04 06:12:38;;;;;;;;;;;1.10;99.90;;;;;;5036997;28;19940;-79
2024/01/04 06:15:03;;;;;;;;;;;1.10;99.90;;;;;;5071738;28;20007;-79
2024/01/04 06:17:29;;;;;;;;;;;1.00;99.90;;;;;;5048925;28;19919;-79
2024/01/04 06:19:54;;;;;;;;;;;1.00;99.90;;;;;;5052652;28;19938;-79
2024/01/04 06:22:20;;;;;;;;;;;1.00;99.90;;;;;;5066790;28;19916;-79
2024/01/04 06:24:46;;;;;;;;;;;1.00;99.90;;;;;;5069580;28;19982;-79
2024/01/04 06:27:11;;;;;;;;;;;0.90;99.90;;;;;;5071431;28;19970;-79
2024/01/04 06:29:37;;;;;;;;;;;0.90;99.90;;;;;;5070873;28;20015;-79
2024/01/04 06:32:02;;;;;;;;;;;0.80;99.90;;;;;;5052365;28;19912;-80
2024/01/04 06:34:28;;;;;;;;;;;0.70;99.90;;;;;;5053432;28;20003;-79
2024/01/04 06:36:53;;;;;;;;;;;0.70;99.90;;;;;;5046403;28;20467;-80
2024/01/04 06:39:19;;;;;;;;;;;0.70;99.90;;;;;;5050212;28;19946;-79
2024/01/04 06:41:44;;;;;;;;;;;0.80;99.90;;;;;;5069270;28;19935;-79
2024/01/04 06:44:10;;;;;;;;;;;0.70;99.90;;;;;;5067780;28;19908;-80
2024/01/04 06:46:36;;;;;;;;;;;0.70;99.90;;;;;;5071340;28;19917;-79
2024/01/04 06:49:01;;;;;;;;;;;0.60;99.90;;;;;;5057313;28;19916;-80
2024/01/04 06:51:26;;;;;;;;;;;0.60;99.90;;;;;;5071176;28;19912;-79
2024/01/04 06:53:52;;;;;;;;;;;0.60;99.90;;;;;;5069069;28;19912;-79
2024/01/04 06:56:19;;;;;;;;;;;0.70;99.90;;;;;;5067980;28;19939;-79
2024/01/04 06:58:45;;;;;;;;;;;0.60;99.90;;;;;;5067692;28;19916;-79
2024/01/04 07:01:10;;;;;;;;;;;0.50;99.90;;;;;;5053528;28;20272;-80
2024/01/04 07:03:36;;;;;;;;;;;0.60;99.90;;;;;;5064856;28;20031;-80
2024/01/04 07:06:02;;;;;;;;;;;0.70;99.90;;;;;;5066425;28;19916;-79
2024/01/04 07:08:28;;;;;;;;;;;0.50;99.90;;;;;;5066104;28;19967;-80
2024/01/04 07:10:53;;;;;;;;;;;0.40;99.90;;;;;;5061183;28;19920;-79
2024/01/04 07:13:19;;;;;;;;;;;0.50;99.90;;;;;;5067180;28;19912;-80
2024/01/04 07:15:45;;;;;;;;;;;0.60;99.90;;;;;;5050894;28;20374;-79
2024/01/04 07:18:10;;;;;;;;;;;0.40;99.90;;;;;;5068922;28;19951;-79
2024/01/04 07:20:37;;;;;;;;;;;0.40;99.90;;;;;;5051486;28;19920;-80
2024/01/04 07:23:03;;;;;;;;;;;0.40;99.90;;;;;;5070643;28;19920;-80
2024/01/04 07:25:30;;;;;;;;;;;0.40;99.90;;;;;;5070428;28;19909;-80
2024/01/04 07:27:56;;;;;;;;;;;0.40;99.90;;;;;;5052399;28;20364;-79
2024/01/04 07:30:22;;;;;;;;;;;0.30;99.90;;;;;;5069494;28;19925;-80
2024/01/04 07:32:47;;;;;;;;;;;0.40;99.90;;;;;;5066459;28;19912;-80
2024/01/04 07:35:14;;;;;;;;;;;0.40;99.90;;;;;;5068956;28;19912;-80
2024/01/04 07:37:39;;;;;;;;;;;0.40;99.90;;;;;;5051760;28;20288;-80
2024/01/04 07:40:05;;;;;;;;;;;0.30;99.90;;;;;;5052504;28;19916;-80
2024/01/04 07:42:30;;;;;;;;;;;0.30;99.90;;;;;;5070369;28;20422;-80
2024/01/04 07:44:55;;;;;;;;;;;0.40;99.90;;;;;;5067251;28;19915;-80
2024/01/04 07:47:21;;;;;;;;;;;0.20;99.90;;;;;;5070217;28;19914;-79
2024/01/04 07:49:46;;;;;;;;;;;0.30;99.90;;;;;;5070213;28;19963;-80
2024/01/04 07:52:12;;;;;;;;;;;0.20;99.90;;;;;;5050406;28;19946;-80
2024/01/04 07:54:37;;;;;;;;;;;0.20;99.90;;;;;;5066704;28;19912;-80
2024/01/04 07:57:03;;;;;;;;;;;0.20;99.90;;;;;;5068899;28;19915;-80
2024/01/04 07:59:28;;;;;;;;;;;0.10;99.90;;;;;;5069425;28;19959;-79
2024/01/04 08:01:54;;;;;;;;;;;0.10;99.90;;;;;;5060174;28;20272;-79
2024/01/04 08:04:19;;;;;;;;;;;0.20;99.90;;;;;;5065415;28;20323;-79
2024/01/04 08:06:44;;;;;;;;;;;0.10;99.90;;;;;;5067561;28;19919;-78
2024/01/04 08:09:11;;;;;;;;;;;0.20;99.90;;;;;;5068330;28;19916;-79
2024/01/04 08:11:40;;;;;;;;;;;0.00;99.90;;;;;;5065516;28;20034;-79
2024/01/04 08:14:06;;;;;;;;;;;0.10;99.90;;;;;;5069024;28;20404;-79
2024/01/04 08:16:32;;;;;;;;;;;0.00;99.90;;;;;;5069760;28;19951;-79
2024/01/04 08:18:57;;;;;;;;;;;0.00;99.90;;;;;;5067369;28;20005;-80
2024/01/04 08:21:23;;;;;;;;;;;0.10;99.90;;;;;;5067357;28;19962;-79
2024/01/04 08:23:50;;;;;;;;;;;0.10;99.90;;;;;;5069255;28;19917;-79
2024/01/04 08:26:15;;;;;;;;;;;0.10;99.90;;;;;;5066730;28;19912;-79
2024/01/04 08:28:40;;;;;;;;;;;0.10;99.90;;;;;;5068373;28;19908;-79
2024/01/04 08:31:07;;;;;;;;;;;0.10;99.90;;;;;;5069080;28;19924;-79
2024/01/04 08:33:32;;;;;;;;;;;0.00;99.90;;;;;;5066721;28;19912;-79
2024/01/04 08:35:58;;;;;;;;;;;0.00;99.90;;;;;;5066156;28;20253;-79
2024/01/04 08:38:23;;;;;;;;;;;0.10;99.90;;;;;;5068767;28;19913;-79
2024/01/04 08:40:49;;;;;;;;;;;0.20;99.90;;;;;;5067820;28;20010;-79
2024/01/04 08:43:15;;;;;;;;;;;0.10;99.90;;;;;;5067305;28;20353;-80
2024/01/04 08:45:40;;;;;;;;;;;0.00;99.90;;;;;;5066905;28;19935;-80
2024/01/04 08:48:06;;;;;;;;;;;0.00;99.90;;;;;;5068075;28;20027;-80
2024/01/04 08:50:31;;;;;;;;;;;0.10;99.90;;;;;;5050442;28;19920;-79
2024/01/04 08:52:57;;;;;;;;;;;0.10;99.90;;;;;;5069315;28;19913;-79
2024/01/04 08:55:22;;;;;;;;;;;0.10;99.90;;;;;;5067311;28;19956;-80
2024/01/04 08:57:48;;;;;;;;;;;0.00;99.90;;;;;;5072063;28;19908;-79
2024/01/04 09:00:14;;;;;;;;;;;0.00;99.90;;;;;;5054532;28;19908;-80
2024/01/04 09:02:40;;;;;;;;;;;0.00;99.90;;;;;;5074084;28;19915;-80
2024/01/04 09:05:06;;;;;;;;;;;0.10;99.90;;;;;;5063272;28;19916;-79
2024/01/04 09:07:31;;;;;;;;;;;0.10;99.90;;;;;;5065593;28;19951;-80
2024/01/04 09:09:57;;;;;;;;;;;0.10;99.90;;;;;;5073341;28;19922;-80
2024/01/04 09:12:22;;;;;;;;;;;0.10;99.90;;;;;;5069489;28;19912;-80
2024/01/04 09:14:47;;;;;;;;;;;0.10;99.90;;;;;;5057559;28;20644;-80
2024/01/04 09:17:13;;;;;;;;;;;0.10;99.90;;;;;;5068682;28;20730;-80
2024/01/04 09:19:40;;;;;;;;;;;0.10;99.90;;;;;;5065219;28;20421;-80
2024/01/04 09:22:05;;;;;;;;;;;0.20;99.90;;;;;;5062991;28;20284;-80
2024/01/04 09:24:31;;;;;;;;;;;0.20;99.90;;;;;;5042819;28;19912;-80
2024/01/04 09:26:57;;;;;;;;;;;0.20;99.90;;;;;;5055388;28;19958;-80
2024/01/04 09:29:22;;;;;;;;;;;0.20;99.90;;;;;;5073155;28;19912;-80
2024/01/04 09:31:48;;;;;;;;;;;0.10;99.90;;;;;;5072742;28;19908;-80
2024/01/04 09:34:13;;;;;;;;;;;0.00;99.90;;;;;;5048650;28;19912;-80
2024/01/04 09:36:39;;;;;;;;;;;0.10;99.90;;;;;;5059255;28;19917;-79
2024/01/04 09:39:04;;;;;;;;;;;0.00;99.90;;;;;;5072223;28;20022;-80
2024/01/04 09:41:35;;;;;;;;;;;0.00;99.90;;;;;;5073106;28;19912;-79
2024/01/04 09:44:03;;;;;;;;;;;0.00;99.90;;;;;;5072116;28;19912;-80
2024/01/04 09:46:32;;;;;;;;;;;0.10;99.90;;;;;;5071794;28;20018;-79
2024/01/04 09:48:58;;;;;;;;;;;0.10;99.90;;;;;;5072881;28;20499;-80
2024/01/04 09:51:27;;;;;;;;;;;0.10;99.90;;;;;;5069658;28;20022;-79
2024/01/04 09:53:56;;;;;;;;;;;0.10;99.90;;;;;;5071838;28;19912;-80
2024/01/04 09:56:22;;;;;;;;;;;0.10;99.90;;;;;;5072708;28;20082;-80
2024/01/04 09:58:48;;;;;;;;;;;0.10;99.90;;;;;;5072220;28;19916;-80
2024/01/04 10:01:18;;;;;;;;;;;0.10;99.90;;;;;;5072245;28;19908;-80
2024/01/04 10:03:45;;;;;;;;;;;0.10;99.90;;;;;;5055134;28;19908;-80
2024/01/04 10:06:11;;;;;;;;;;;0.10;99.90;;;;;;5068327;28;19954;-80
2024/01/04 10:08:42;;;;;;;;;;;0.10;99.90;;;;;;5065794;28;19920;-79
2024/01/04 10:11:19;;;;;;;;;;;0.20;99.90;;;;;;5065582;28;19935;-80
2024/01/04 10:13:45;;;;;;;;;;;0.30;99.90;;;;;;5060365;28;19917;-80
2024/01/04 10:16:11;;;;;;;;;;;0.30;99.90;;;;;;5069764;28;19915;-80
2024/01/04 10:18:36;;;;;;;;;;;0.30;99.90;;;;;;5066595;28;19919;-80
2024/01/04 10:21:05;;;;;;;;;;;0.20;99.90;;;;;;5072042;28;19999;-80
2024/01/04 10:23:31;;;;;;;;;;;0.20;99.90;;;;;;5071379;28;19908;-80
2024/01/04 10:26:13;;;;;;;;;;;0.30;99.90;;;;;;5054153;28;19958;-82
2024/01/04 10:28:39;;;;;;;;;;;0.40;99.90;;;;;;5069787;28;19908;-82
2024/01/04 10:31:08;;;;;;;;;;;0.40;99.90;;;;;;5070281;28;20017;-81
2024/01/04 10:33:34;;;;;;;;;;;0.40;99.90;;;;;;5071317;28;20648;-82
2024/01/04 10:36:09;;;;;;;;;;;0.30;99.90;;;;;;5046386;28;19986;-82
2024/01/04 10:38:36;;;;;;;;;;;0.30;99.90;;;;;;5070851;28;19920;-81
2024/01/04 10:41:02;;;;;;;;;;;0.30;99.90;;;;;;5071062;28;19915;-82
2024/01/04 10:43:27;;;;;;;;;;;0.20;99.90;;;;;;5052158;28;20320;-82
2024/01/04 10:46:00;;;;;;;;;;;0.30;99.90;;;;;;5065254;28;20033;-82
2024/01/04 10:48:25;;;;;;;;;;;0.30;99.90;;;;;;5070000;28;19917;-82
2024/01/04 10:50:52;;;;;;;;;;;0.20;99.90;;;;;;5062838;28;20023;-82
2024/01/04 10:53:17;;;;;;;;;;;0.30;99.90;;;;;;5070697;28;20037;-82
2024/01/04 10:55:44;;;;;;;;;;;0.30;99.90;;;;;;5069099;28;20365;-82
2024/01/04 10:58:09;;;;;;;;;;;0.20;99.90;;;;;;5070835;28;20300;-82
2024/01/04 11:00:35;;;;;;;;;;;0.30;99.90;;;;;;5070603;28;19908;-83
2024/01/04 11:03:02;;;;;;;;;;;0.20;99.90;;;;;;5065142;28;19978;-82
2024/01/04 11:05:28;;;;;;;;;;;0.20;99.90;;;;;;5068273;28;19912;-82
2024/01/04 11:07:55;;;;;;;;;;;0.20;99.90;;;;;;5070147;28;19995;-82
2024/01/04 11:10:21;;;;;;;;;;;0.30;99.90;;;;;;5070211;28;19916;-82
2024/01/04 11:12:47;;;;;;;;;;;0.30;99.90;;;;;;5067100;28;19913;-82
2024/01/04 11:15:15;;;;;;;;;;;0.30;99.90;;;;;;5068594;28;19916;-82
2024/01/04 11:17:46;;;;;;;;;;;0.30;99.90;;;;;;5064971;28;19912;-84
2024/01/04 11:20:19;;;;;;;;;;;0.20;99.90;;;;;;5048173;28;19931;-84
2024/01/04 11:23:05;;;;;;;;;;;0.20;99.90;;;;;;5051396;28;19940;-83
2024/01/04 11:25:37;;;;;;;;;;;0.20;99.90;;;;;;5067997;28;19912;-83
2024/01/04 11:28:04;;;;;;;;;;;0.20;99.90;;;;;;5069396;28;19913;-83
2024/01/04 11:30:30;;;;;;;;;;;0.10;99.90;;;;;;5062729;28;19924;-83
2024/01/04 11:32:55;;;;;;;;;;;0.10;99.90;;;;;;5070273;28;19927;-82
2024/01/04 11:35:21;;;;;;;;;;;0.10;99.90;;;;;;5069227;28;19962;-81
2024/01/04 11:37:52;;;;;;;;;;;0.20;99.90;;;;;;5067126;28;20363;-81
2024/01/04 11:40:25;;;;;;;;;;;0.30;99.90;;;;;;5064533;28;19912;-81
2024/01/04 11:42:50;;;;;;;;;;;0.30;99.90;;;;;;5059003;28;19962;-82
2024/01/04 11:45:16;;;;;;;;;;;0.30;99.90;;;;;;5056932;28;19920;-81
2024/01/04 11:47:46;;;;;;;;;;;0.20;99.90;;;;;;5069835;28;19908;-81
2024/01/04 11:50:17;;;;;;;;;;;0.30;99.90;;;;;;5069664;28;19923;-82
2024/01/04 11:52:43;;;;;;;;;;;0.20;99.90;;;;;;5052123;28;19956;-82
2024/01/04 11:55:09;;;;;;;;;;;0.20;99.90;;;;;;5068494;28;19970;-82
2024/01/04 11:57:35;;;;;;;;;;;0.20;99.90;;;;;;5048506;28;19912;-82
2024/01/04 12:00:16;;;;;;;;;;;0.20;99.90;;;;;;5068562;28;20388;-83
2024/01/04 12:02:41;;;;;;;;;;;0.20;99.90;;;;;;5050341;28;19923;-84
2024/01/04 12:05:07;;;;;;;;;;;0.10;99.90;;;;;;5065754;28;19912;-83
2024/01/04 12:07:34;;;;;;;;;;;0.10;99.90;;;;;;5049635;28;20380;-83
2024/01/04 12:10:00;;;;;;;;;;;0.20;99.90;;;;;;5049930;28;19965;-83
2024/01/04 12:12:25;;;;;;;;;;;0.20;99.90;;;;;;5049998;28;19920;-83
2024/01/04 12:14:50;;;;;;;;;;;0.20;99.90;;;;;;5049863;28;19919;-84
2024/01/04 12:17:16;;;;;;;;;;;0.20;99.90;;;;;;5056959;28;19920;-83
2024/01/04 12:19:41;;;;;;;;;;;0.30;99.90;;;;;;5060218;28;20432;-83
2024/01/04 12:22:07;;;;;;;;;;;0.30;99.90;;;;;;5042112;28;19916;-83
2024/01/04 12:24:32;;;;;;;;;;;0.30;99.90;;;;;;5059006;28;20365;-83
2024/01/04 12:26:58;;;;;;;;;;;0.30;99.90;;;;;;5039257;28;19943;-83
2024/01/04 12:29:24;;;;;;;;;;;0.30;99.90;;;;;;5040176;28;19931;-83
2024/01/04 12:31:50;;;;;;;;;;;0.40;99.90;;;;;;5057471;28;19916;-84
2024/01/04 12:34:15;;;;;;;;;;;0.40;99.90;;;;;;5040484;28;19993;-84
2024/01/04 12:36:41;;;;;;;;;;;0.30;99.90;;;;;;5059290;28;19908;-84
2024/01/04 12:39:11;;;;;;;;;;;0.30;99.90;;;;;;5060304;28;19963;-84
2024/01/04 12:41:38;;;;;;;;;;;0.30;99.90;;;;;;5039552;28;20274;-84
2024/01/04 12:44:07;;;;;;;;;;;0.30;99.90;;;;;;5060006;28;19912;-83
2024/01/04 12:46:32;;;;;;;;;;;0.20;99.90;;;;;;5041591;28;20281;-83
2024/01/04 12:49:08;;;;;;;;;;;0.30;99.90;;;;;;5060207;28;19915;-84
2024/01/04 12:51:37;;;;;;;;;;;0.20;99.90;;;;;;5059924;28;19920;-83
2024/01/04 12:54:03;;;;;;;;;;;0.30;99.90;;;;;;5057913;28;20105;-84
2024/01/04 12:56:28;;;;;;;;;;;0.30;99.90;;;;;;5040473;28;19999;-84
2024/01/04 12:58:56;;;;;;;;;;;0.30;99.90;;;;;;5040693;28;19912;-84
2024/01/04 13:01:22;;;;;;;;;;;0.30;99.90;;;;;;5063564;28;19916;-83
2024/01/04 13:03:49;;;;;;;;;;;0.40;99.90;;;;;;5064331;28;19912;-83
2024/01/04 13:06:15;;;;;;;;;;;0.40;99.90;;;;;;5069634;28;19913;-84
2024/01/04 13:08:40;;;;;;;;;;;0.40;99.90;;;;;;5065728;28;19927;-84
2024/01/04 13:11:08;;;;;;;;;;;0.40;99.90;;;;;;5045314;28;19924;-84
2024/01/04 13:13:34;;;;;;;;;;;0.40;99.90;;;;;;5058861;28;19908;-84
2024/01/04 13:16:00;;;;;;;;;;;0.40;99.90;;;;;;5039992;28;19917;-83
2024/01/04 13:18:25;;;;;;;;;;;0.30;99.90;;;;;;5057474;28;19919;-83
2024/01/04 13:20:51;;;;;;;;;;;0.30;99.90;;;;;;5058772;28;19917;-83
2024/01/04 13:23:16;;;;;;;;;;;0.30;99.90;;;;;;5058704;28;19998;-84
2024/01/04 13:25:42;;;;;;;;;;;0.40;99.90;;;;;;5058550;28;19909;-83
2024/01/04 13:28:07;;;;;;;;;;;0.40;99.90;;;;;;5058403;28;19921;-84
2024/01/04 13:30:32;;;;;;;;;;;0.40;99.90;;;;;;5058059;28;19916;-83
2024/01/04 13:32:58;;;;;;;;;;;0.30;99.90;;;;;;5039880;28;19995;-84
2024/01/04 13:35:24;;;;;;;;;;;0.30;99.90;;;;;;5038955;28;19916;-84
2024/01/04 13:37:50;;;;;;;;;;;0.30;99.90;;;;;;5059641;28;20317;-82
2024/01/04 13:40:15;;;;;;;;;;;0.20;99.90;;;;;;5052906;28;19954;-80
2024/01/04 13:42:44;;;;;;;;;;;0.30;99.90;;;;;;5073506;28;19955;-82
2024/01/04 13:45:10;;;;;;;;;;;0.30;99.90;;;;;;5054571;28;19930;-81
2024/01/04 13:47:35;;;;;;;;;;;0.20;99.90;;;;;;5070605;28;19908;-82
2024/01/04 13:50:01;;;;;;;;;;;0.20;99.90;;;;;;5046478;28;19912;-82
2024/01/04 13:52:26;;;;;;;;;;;0.30;99.90;;;;;;5055464;28;19916;-82
2024/01/04 13:54:52;;;;;;;;;;;0.30;99.90;;;;;;5067152;28;19952;-82
2024/01/04 13:57:17;;;;;;;;;;;0.20;99.90;;;;;;5047368;28;20008;-81
2024/01/04 13:59:42;;;;;;;;;;;0.20;99.90;;;;;;5064687;28;19908;-81
2024/01/04 14:02:08;;;;;;;;;;;0.30;99.90;;;;;;5070926;28;19909;-81